createdAt,value
2023-04-18T18:10:42.349Z,77.63
2023-04-18T18:11:42.272Z,77.72
2023-04-18T18:12:42.224Z,77.72
2023-04-18T18:13:42.174Z,77.97
2023-04-18T18:14:42.137Z,77.87
2023-04-18T18:15:42.084Z,78.26
2023-04-18T18:16:42.099Z,78.55
2023-04-18T18:17:42.060Z,79.31
2023-04-18T18:18:41.946Z,79.60
2023-04-18T18:19:41.901Z,79.88
2023-04-18T18:20:41.854Z,80.17
2023-04-18T18:21:41.800Z,80.36
2023-04-18T18:22:41.758Z,80.36
2023-04-18T18:23:41.715Z,80.74
2023-04-18T18:24:41.669Z,80.93
2023-04-18T18:25:41.633Z,81.09
2023-04-18T18:26:41.618Z,81.09
2023-04-18T18:27:41.557Z,81.56
2023-04-18T18:28:41.486Z,81.37
2023-04-18T18:29:41.449Z,82.42
2023-04-18T18:30:41.405Z,82.32
2023-04-18T18:31:41.482Z,82.52
2023-04-18T18:32:41.395Z,82.71
2023-04-18T18:33:41.283Z,82.90
2023-04-18T18:34:41.235Z,82.71
2023-04-18T18:35:41.190Z,83.09
2023-04-18T18:36:41.148Z,83.38
2023-04-18T18:37:41.127Z,83.18
2023-04-18T18:38:41.064Z,83.86
2023-04-18T18:39:41.008Z,84.05
2023-04-18T18:40:40.963Z,83.81
2023-04-18T18:41:40.927Z,84.77
2023-04-18T18:42:40.898Z,84.58
2023-04-18T18:43:40.834Z,84.48
2023-04-18T18:44:40.788Z,84.29
2023-04-18T18:45:40.751Z,84.58
2023-04-18T18:46:42.968Z,84.67
2023-04-18T18:47:40.687Z,84.39
2023-04-18T18:48:40.611Z,84.67
2023-04-18T18:49:40.568Z,84.48
2023-04-18T18:50:40.528Z,84.58
2023-04-18T18:51:40.481Z,84.77
2023-04-18T18:52:40.433Z,84.58
2023-04-18T18:53:40.776Z,84.67
2023-04-18T18:54:40.348Z,85.25
2023-04-18T18:55:40.310Z,85.15
2023-04-18T18:56:40.262Z,84.58
2023-04-18T18:57:40.217Z,84.58
2023-04-18T18:58:40.352Z,84.58
2023-04-18T18:59:40.138Z,85.05
2023-04-18T19:00:40.085Z,85.30
2023-04-18T19:01:40.058Z,85.15
2023-04-18T19:02:40.279Z,85.01
2023-04-18T19:03:40.097Z,84.96
2023-04-18T19:04:40.028Z,85.25
2023-04-18T19:05:39.869Z,85.30
2023-04-18T19:06:39.831Z,85.77
2023-04-18T19:07:39.779Z,85.82
2023-04-18T19:08:39.739Z,85.58
2023-04-18T19:09:39.720Z,85.87
2023-04-18T19:10:39.652Z,86.16
2023-04-18T19:11:39.621Z,86.54
2023-04-18T19:12:39.562Z,86.92
2023-04-18T19:13:39.521Z,86.16
2023-04-18T19:14:41.914Z,86.73
2023-04-18T19:15:39.432Z,87.02
2023-04-18T19:16:39.426Z,86.92
2023-04-18T19:17:39.415Z,86.92
2023-04-18T19:18:39.309Z,86.82
2023-04-18T19:19:39.260Z,86.92
2023-04-18T19:20:39.211Z,87.40
2023-04-18T19:21:39.171Z,88.07
2023-04-18T19:22:39.143Z,87.78
2023-04-18T19:23:39.085Z,87.59
2023-04-18T19:24:39.043Z,87.78
2023-04-18T19:25:38.993Z,87.87
2023-04-18T19:26:38.953Z,87.97
2023-04-18T19:27:38.926Z,87.97
2023-04-18T19:28:38.862Z,87.87
2023-04-18T19:29:38.823Z,87.78
2023-04-18T19:30:38.796Z,87.93
2023-04-18T19:31:38.770Z,88.16
2023-04-18T19:32:38.711Z,88.02
2023-04-18T19:33:38.645Z,88.40
2023-04-18T19:34:38.617Z,88.40
2023-04-18T19:35:38.560Z,88.21
2023-04-18T19:36:38.525Z,87.93
2023-04-18T19:37:38.496Z,88.31
2023-04-18T19:38:38.428Z,88.50
2023-04-18T19:39:38.380Z,88.50
2023-04-18T19:40:38.341Z,88.78
2023-04-18T19:41:38.296Z,88.88
2023-04-18T19:42:38.249Z,88.88
2023-04-18T19:43:38.202Z,89.07
2023-04-18T19:44:38.161Z,88.88
2023-04-18T19:45:38.166Z,89.17
2023-04-18T19:46:38.175Z,89.17
2023-04-18T19:47:38.159Z,89.17
2023-04-18T19:48:37.981Z,89.07
2023-04-18T19:49:37.949Z,89.93
2023-04-18T19:50:37.900Z,89.83
2023-04-18T19:51:37.850Z,89.83
2023-04-18T19:52:37.816Z,89.74
2023-04-18T19:53:37.760Z,89.74
2023-04-18T19:54:37.716Z,89.74
2023-04-18T19:55:37.671Z,90.22
2023-04-18T19:56:37.637Z,90.88
2023-04-18T19:57:37.589Z,90.12
2023-04-18T19:58:37.540Z,90.03
2023-04-18T19:59:37.502Z,90.41
2023-04-18T20:00:37.455Z,90.31
2023-04-18T20:01:37.485Z,90.59
2023-04-18T20:02:37.508Z,90.50
2023-04-18T20:03:37.683Z,90.50
2023-04-18T20:04:37.547Z,90.79
2023-04-18T20:05:37.348Z,90.88
2023-04-18T20:06:37.186Z,90.50
2023-04-18T20:07:37.165Z,90.41
2023-04-18T20:08:37.112Z,91.07
2023-04-18T20:09:37.051Z,90.79
2023-04-18T20:10:37.013Z,90.88
2023-04-18T20:11:36.964Z,90.98
2023-04-18T20:12:36.925Z,90.79
2023-04-18T20:13:36.878Z,90.93
2023-04-18T20:14:36.840Z,90.79
2023-04-18T20:15:36.792Z,90.84
2023-04-18T20:16:36.755Z,91.07
2023-04-18T20:17:36.745Z,90.74
2023-04-18T20:18:36.676Z,90.93
2023-04-18T20:19:36.611Z,90.93
2023-04-18T20:20:36.566Z,90.93
2023-04-18T20:21:36.541Z,90.74
2023-04-18T20:22:36.477Z,90.74
2023-04-18T20:23:36.446Z,91.13
2023-04-18T20:24:36.391Z,90.84
2023-04-18T20:25:36.349Z,90.74
2023-04-18T20:26:36.303Z,90.64
2023-04-18T20:27:36.270Z,90.93
2023-04-18T20:29:36.167Z,90.93
2023-04-18T20:30:36.187Z,90.93
2023-04-18T20:31:36.082Z,90.93
2023-04-18T20:32:36.035Z,91.03
2023-04-18T20:33:35.996Z,90.93
2023-04-18T20:34:35.968Z,91.13
2023-04-18T20:35:35.900Z,91.13
2023-04-18T20:36:35.861Z,91.03
2023-04-18T20:37:35.816Z,91.60
2023-04-18T20:38:35.766Z,91.03
2023-04-18T20:39:35.727Z,91.41
2023-04-18T20:40:35.681Z,91.60
2023-04-18T20:41:35.683Z,91.31
2023-04-18T20:42:35.597Z,91.69
2023-04-18T20:43:35.547Z,91.79
2023-04-18T20:44:35.503Z,91.50
2023-04-18T20:45:35.457Z,91.88
2023-04-18T20:46:35.478Z,91.69
2023-04-18T20:47:35.433Z,91.50
2023-04-18T20:48:35.320Z,91.41
2023-04-18T20:49:35.295Z,91.41
2023-04-18T20:50:35.254Z,92.08
2023-04-18T20:51:35.193Z,92.08
2023-04-18T20:52:35.169Z,91.88
2023-04-18T20:53:35.119Z,92.74
2023-04-18T20:54:35.058Z,92.65
2023-04-18T20:55:35.013Z,92.84
2023-04-18T20:56:34.966Z,92.65
2023-04-18T20:57:34.928Z,92.46
2023-04-18T20:58:34.883Z,92.65
2023-04-18T20:59:34.836Z,93.32
2023-04-18T21:00:34.786Z,93.12
2023-04-18T21:01:36.844Z,93.70
2023-04-18T21:02:34.782Z,93.88
